sensor_id;sensor_type;location;lat;lon;timestamp;P1;durP1;ratioP1;P2;durP2;ratioP2
8626;SDS011;4351;51.422;6.794;2023-03-14T00:02:28;7.23;;;1.70;;
8626;SDS011;4351;51.422;6.794;2023-03-14T00:04:56;5.43;;;1.60;;
8626;SDS011;4351;51.422;6.794;2023-03-14T00:07:23;7.20;;;1.70;;
8626;SDS011;4351;51.422;6.794;2023-03-14T00:09:51;7.63;;;1.67;;
8626;SDS011;4351;51.422;6.794;2023-03-14T00:12:19;5.93;;;1.73;;
8626;SDS011;4351;51.422;6.794;2023-03-14T00:14:47;4.93;;;1.93;;
8626;SDS011;4351;51.422;6.794;2023-03-14T00:17:15;6.43;;;1.67;;
8626;SDS011;4351;51.422;6.794;2023-03-14T00:19:44;6.70;;;1.83;;
8626;SDS011;4351;51.422;6.794;2023-03-14T00:22:12;5.07;;;1.57;;
8626;SDS011;4351;51.422;6.794;2023-03-14T00:24:40;5.60;;;1.50;;
8626;SDS011;4351;51.422;6.794;2023-03-14T00:27:07;7.27;;;1.70;;
8626;SDS011;4351;51.422;6.794;2023-03-14T00:29:37;4.10;;;1.40;;
8626;SDS011;4351;51.422;6.794;2023-03-14T00:32:05;8.50;;;2.00;;
8626;SDS011;4351;51.422;6.794;2023-03-14T00:34:33;7.33;;;1.70;;
8626;SDS011;4351;51.422;6.794;2023-03-14T00:37:02;13.67;;;3.23;;
8626;SDS011;4351;51.422;6.794;2023-03-14T00:39:30;8.13;;;2.00;;
8626;SDS011;4351;51.422;6.794;2023-03-14T00:41:58;5.93;;;1.60;;
8626;SDS011;4351;51.422;6.794;2023-03-14T00:44:28;2.67;;;1.07;;
8626;SDS011;4351;51.422;6.794;2023-03-14T00:46:56;3.30;;;1.30;;
8626;SDS011;4351;51.422;6.794;2023-03-14T00:49:24;2.30;;;1.20;;
8626;SDS011;4351;51.422;6.794;2023-03-14T00:51:52;5.93;;;1.10;;
8626;SDS011;4351;51.422;6.794;2023-03-14T00:54:21;6.33;;;1.20;;
8626;SDS011;4351;51.422;6.794;2023-03-14T00:56:49;4.77;;;0.90;;
8626;SDS011;4351;51.422;6.794;2023-03-14T00:59:17;3.00;;;0.60;;
8626;SDS011;4351;51.422;6.794;2023-03-14T01:01:44;3.60;;;0.90;;
8626;SDS011;4351;51.422;6.794;2023-03-14T01:04:12;2.20;;;0.67;;
8626;SDS011;4351;51.422;6.794;2023-03-14T01:06:40;5.00;;;0.87;;
8626;SDS011;4351;51.422;6.794;2023-03-14T01:09:09;7.30;;;0.80;;
8626;SDS011;4351;51.422;6.794;2023-03-14T01:11:39;3.17;;;0.80;;
8626;SDS011;4351;51.422;6.794;2023-03-14T01:14:06;5.90;;;1.10;;
8626;SDS011;4351;51.422;6.794;2023-03-14T01:16:34;6.27;;;1.00;;
8626;SDS011;4351;51.422;6.794;2023-03-14T01:19:03;4.70;;;1.00;;
8626;SDS011;4351;51.422;6.794;2023-03-14T01:21:31;5.63;;;1.20;;
8626;SDS011;4351;51.422;6.794;2023-03-14T01:24:02;5.87;;;1.00;;
8626;SDS011;4351;51.422;6.794;2023-03-14T01:26:33;7.17;;;1.23;;
8626;SDS011;4351;51.422;6.794;2023-03-14T01:29:05;4.83;;;1.10;;
8626;SDS011;4351;51.422;6.794;2023-03-14T01:31:36;5.33;;;1.17;;
8626;SDS011;4351;51.422;6.794;2023-03-14T01:34:04;6.20;;;1.27;;
8626;SDS011;4351;51.422;6.794;2023-03-14T01:36:32;6.53;;;1.50;;
8626;SDS011;4351;51.422;6.794;2023-03-14T01:39:00;8.73;;;1.17;;
8626;SDS011;4351;51.422;6.794;2023-03-14T01:41:29;5.73;;;1.13;;
8626;SDS011;4351;51.422;6.794;2023-03-14T01:43:58;6.27;;;1.53;;
8626;SDS011;4351;51.422;6.794;2023-03-14T01:46:29;5.17;;;1.00;;
8626;SDS011;4351;51.422;6.794;2023-03-14T01:49:02;4.67;;;1.10;;
8626;SDS011;4351;51.422;6.794;2023-03-14T01:51:36;5.40;;;0.97;;
8626;SDS011;4351;51.422;6.794;2023-03-14T01:54:10;5.27;;;1.00;;
8626;SDS011;4351;51.422;6.794;2023-03-14T01:56:43;4.67;;;0.90;;
8626;SDS011;4351;51.422;6.794;2023-03-14T01:59:13;6.37;;;1.17;;
8626;SDS011;4351;51.422;6.794;2023-03-14T02:01:43;5.03;;;0.87;;
8626;SDS011;4351;51.422;6.794;2023-03-14T02:04:14;4.30;;;1.30;;
8626;SDS011;4351;51.422;6.794;2023-03-14T02:06:47;6.10;;;1.20;;
8626;SDS011;4351;51.422;6.794;2023-03-14T02:09:20;4.43;;;0.77;;
8626;SDS011;4351;51.422;6.794;2023-03-14T02:11:49;6.03;;;1.10;;
8626;SDS011;4351;51.422;6.794;2023-03-14T02:14:41;5.87;;;1.03;;
8626;SDS011;4351;51.422;6.794;2023-03-14T02:17:23;3.90;;;1.10;;
8626;SDS011;4351;51.422;6.794;2023-03-14T02:20:19;5.47;;;1.13;;
8626;SDS011;4351;51.422;6.794;2023-03-14T02:22:56;7.83;;;1.13;;
8626;SDS011;4351;51.422;6.794;2023-03-14T02:25:28;3.27;;;0.90;;
8626;SDS011;4351;51.422;6.794;2023-03-14T02:28:08;5.77;;;1.23;;
8626;SDS011;4351;51.422;6.794;2023-03-14T02:30:37;5.93;;;1.00;;
8626;SDS011;4351;51.422;6.794;2023-03-14T02:33:06;7.70;;;1.30;;
8626;SDS011;4351;51.422;6.794;2023-03-14T02:35:36;6.00;;;1.47;;
8626;SDS011;4351;51.422;6.794;2023-03-14T02:38:09;6.00;;;1.10;;
8626;SDS011;4351;51.422;6.794;2023-03-14T02:40:44;5.37;;;1.33;;
8626;SDS011;4351;51.422;6.794;2023-03-14T02:43:13;6.30;;;1.43;;
8626;SDS011;4351;51.422;6.794;2023-03-14T02:45:47;9.97;;;1.73;;
8626;SDS011;4351;51.422;6.794;2023-03-14T02:48:20;8.00;;;1.83;;
8626;SDS011;4351;51.422;6.794;2023-03-14T02:50:52;3.73;;;1.10;;
8626;SDS011;4351;51.422;6.794;2023-03-14T02:53:23;5.73;;;1.10;;
8626;SDS011;4351;51.422;6.794;2023-03-14T02:55:56;8.33;;;1.50;;
8626;SDS011;4351;51.422;6.794;2023-03-14T02:58:27;10.53;;;1.57;;
8626;SDS011;4351;51.422;6.794;2023-03-14T03:01:04;6.70;;;1.27;;
8626;SDS011;4351;51.422;6.794;2023-03-14T03:03:33;6.80;;;1.20;;
8626;SDS011;4351;51.422;6.794;2023-03-14T03:06:01;10.60;;;1.63;;
8626;SDS011;4351;51.422;6.794;2023-03-14T03:08:30;5.87;;;1.10;;
8626;SDS011;4351;51.422;6.794;2023-03-14T03:10:59;4.10;;;1.10;;
8626;SDS011;4351;51.422;6.794;2023-03-14T03:13:31;5.47;;;1.00;;
8626;SDS011;4351;51.422;6.794;2023-03-14T03:16:01;4.27;;;1.30;;
8626;SDS011;4351;51.422;6.794;2023-03-14T03:18:29;4.10;;;1.33;;
8626;SDS011;4351;51.422;6.794;2023-03-14T03:20:59;7.70;;;1.10;;
8626;SDS011;4351;51.422;6.794;2023-03-14T03:23:27;7.47;;;1.40;;
8626;SDS011;4351;51.422;6.794;2023-03-14T03:25:56;4.53;;;1.10;;
8626;SDS011;4351;51.422;6.794;2023-03-14T03:28:24;6.40;;;1.20;;
8626;SDS011;4351;51.422;6.794;2023-03-14T03:30:54;8.23;;;1.30;;
8626;SDS011;4351;51.422;6.794;2023-03-14T03:33:22;5.37;;;1.10;;
8626;SDS011;4351;51.422;6.794;2023-03-14T03:35:51;5.77;;;1.70;;
8626;SDS011;4351;51.422;6.794;2023-03-14T03:38:26;3.73;;;1.00;;
8626;SDS011;4351;51.422;6.794;2023-03-14T03:40:55;6.67;;;1.30;;
8626;SDS011;4351;51.422;6.794;2023-03-14T03:43:25;4.67;;;1.17;;
8626;SDS011;4351;51.422;6.794;2023-03-14T03:45:54;7.67;;;1.40;;
8626;SDS011;4351;51.422;6.794;2023-03-14T03:48:23;7.00;;;1.47;;
8626;SDS011;4351;51.422;6.794;2023-03-14T03:50:50;6.13;;;1.47;;
8626;SDS011;4351;51.422;6.794;2023-03-14T03:53:21;8.03;;;1.60;;
8626;SDS011;4351;51.422;6.794;2023-03-14T03:56:02;6.53;;;1.13;;
8626;SDS011;4351;51.422;6.794;2023-03-14T03:58:32;4.90;;;1.10;;
8626;SDS011;4351;51.422;6.794;2023-03-14T04:01:02;3.80;;;1.30;;
8626;SDS011;4351;51.422;6.794;2023-03-14T04:03:31;6.73;;;1.33;;
8626;SDS011;4351;51.422;6.794;2023-03-14T04:05:59;7.47;;;1.80;;
8626;SDS011;4351;51.422;6.794;2023-03-14T04:08:28;6.57;;;1.30;;
8626;SDS011;4351;51.422;6.794;2023-03-14T04:10:56;5.10;;;1.37;;
8626;SDS011;4351;51.422;6.794;2023-03-14T04:13:43;5.57;;;1.50;;
8626;SDS011;4351;51.422;6.794;2023-03-14T04:16:14;6.47;;;1.10;;
8626;SDS011;4351;51.422;6.794;2023-03-14T04:18:44;6.37;;;1.30;;
8626;SDS011;4351;51.422;6.794;2023-03-14T04:21:12;6.70;;;1.17;;
8626;SDS011;4351;51.422;6.794;2023-03-14T04:23:45;3.53;;;1.30;;
8626;SDS011;4351;51.422;6.794;2023-03-14T04:26:14;5.80;;;1.40;;
8626;SDS011;4351;51.422;6.794;2023-03-14T04:28:43;6.63;;;1.60;;
8626;SDS011;4351;51.422;6.794;2023-03-14T04:31:11;4.67;;;1.20;;
8626;SDS011;4351;51.422;6.794;2023-03-14T04:33:43;4.40;;;1.03;;
8626;SDS011;4351;51.422;6.794;2023-03-14T04:36:13;7.90;;;1.57;;
8626;SDS011;4351;51.422;6.794;2023-03-14T04:38:42;6.17;;;1.30;;
8626;SDS011;4351;51.422;6.794;2023-03-14T04:41:11;6.27;;;1.60;;
8626;SDS011;4351;51.422;6.794;2023-03-14T04:43:39;5.53;;;1.43;;
8626;SDS011;4351;51.422;6.794;2023-03-14T04:46:09;4.67;;;1.10;;
8626;SDS011;4351;51.422;6.794;2023-03-14T04:48:39;3.53;;;0.90;;
8626;SDS011;4351;51.422;6.794;2023-03-14T04:51:07;2.27;;;0.70;;
8626;SDS011;4351;51.422;6.794;2023-03-14T04:53:35;2.90;;;0.87;;
8626;SDS011;4351;51.422;6.794;2023-03-14T04:56:07;3.53;;;0.80;;
8626;SDS011;4351;51.422;6.794;2023-03-14T04:58:38;3.23;;;0.70;;
8626;SDS011;4351;51.422;6.794;2023-03-14T05:01:07;2.70;;;0.80;;
8626;SDS011;4351;51.422;6.794;2023-03-14T05:03:50;4.57;;;0.90;;
8626;SDS011;4351;51.422;6.794;2023-03-14T05:06:34;2.90;;;0.90;;
8626;SDS011;4351;51.422;6.794;2023-03-14T05:09:07;2.00;;;0.80;;
8626;SDS011;4351;51.422;6.794;2023-03-14T05:11:38;4.93;;;1.10;;
8626;SDS011;4351;51.422;6.794;2023-03-14T05:14:20;3.77;;;1.47;;
8626;SDS011;4351;51.422;6.794;2023-03-14T05:17:12;7.67;;;1.83;;
8626;SDS011;4351;51.422;6.794;2023-03-14T05:20:06;8.10;;;2.23;;
8626;SDS011;4351;51.422;6.794;2023-03-14T05:23:13;6.27;;;3.07;;
8626;SDS011;4351;51.422;6.794;2023-03-14T05:25:50;5.63;;;3.23;;
8626;SDS011;4351;51.422;6.794;2023-03-14T05:28:36;6.23;;;2.40;;
8626;SDS011;4351;51.422;6.794;2023-03-14T05:31:13;5.00;;;2.63;;
8626;SDS011;4351;51.422;6.794;2023-03-14T05:34:01;8.50;;;2.40;;
8626;SDS011;4351;51.422;6.794;2023-03-14T05:36:30;3.73;;;1.50;;
8626;SDS011;4351;51.422;6.794;2023-03-14T05:39:16;2.70;;;1.00;;
8626;SDS011;4351;51.422;6.794;2023-03-14T05:42:06;1.67;;;0.70;;
8626;SDS011;4351;51.422;6.794;2023-03-14T05:45:06;3.20;;;0.83;;
8626;SDS011;4351;51.422;6.794;2023-03-14T05:47:50;2.87;;;0.80;;
8626;SDS011;4351;51.422;6.794;2023-03-14T05:50:29;2.73;;;0.70;;
8626;SDS011;4351;51.422;6.794;2023-03-14T05:53:18;4.03;;;0.90;;
8626;SDS011;4351;51.422;6.794;2023-03-14T05:56:15;1.70;;;0.70;;
8626;SDS011;4351;51.422;6.794;2023-03-14T05:58:58;2.27;;;0.70;;
8626;SDS011;4351;51.422;6.794;2023-03-14T06:01:43;3.60;;;1.17;;
8626;SDS011;4351;51.422;6.794;2023-03-14T06:04:17;2.70;;;0.90;;
8626;SDS011;4351;51.422;6.794;2023-03-14T06:06:50;2.83;;;0.80;;
8626;SDS011;4351;51.422;6.794;2023-03-14T06:09:21;2.30;;;0.70;;
8626;SDS011;4351;51.422;6.794;2023-03-14T06:11:52;4.07;;;1.10;;
8626;SDS011;4351;51.422;6.794;2023-03-14T06:14:20;1.77;;;0.60;;
8626;SDS011;4351;51.422;6.794;2023-03-14T06:16:49;2.77;;;0.67;;
8626;SDS011;4351;51.422;6.794;2023-03-14T06:19:18;1.77;;;0.60;;
8626;SDS011;4351;51.422;6.794;2023-03-14T06:21:46;1.57;;;0.70;;
8626;SDS011;4351;51.422;6.794;2023-03-14T06:24:15;2.50;;;0.60;;
8626;SDS011;4351;51.422;6.794;2023-03-14T06:26:47;2.20;;;0.57;;
8626;SDS011;4351;51.422;6.794;2023-03-14T06:29:16;1.53;;;0.50;;
8626;SDS011;4351;51.422;6.794;2023-03-14T06:31:45;1.03;;;0.50;;
8626;SDS011;4351;51.422;6.794;2023-03-14T06:34:17;1.90;;;0.53;;
8626;SDS011;4351;51.422;6.794;2023-03-14T06:36:44;0.80;;;0.57;;
8626;SDS011;4351;51.422;6.794;2023-03-14T06:39:13;1.13;;;0.50;;
8626;SDS011;4351;51.422;6.794;2023-03-14T06:41:44;2.20;;;0.50;;
8626;SDS011;4351;51.422;6.794;2023-03-14T06:44:14;0.90;;;0.50;;
8626;SDS011;4351;51.422;6.794;2023-03-14T06:46:43;1.63;;;0.63;;
8626;SDS011;4351;51.422;6.794;2023-03-14T06:49:11;1.23;;;0.60;;
8626;SDS011;4351;51.422;6.794;2023-03-14T06:51:39;1.27;;;0.60;;
8626;SDS011;4351;51.422;6.794;2023-03-14T06:54:08;1.03;;;0.40;;
8626;SDS011;4351;51.422;6.794;2023-03-14T06:56:36;1.60;;;0.90;;
8626;SDS011;4351;51.422;6.794;2023-03-14T06:59:04;0.87;;;0.50;;
8626;SDS011;4351;51.422;6.794;2023-03-14T07:01:34;1.83;;;0.50;;
8626;SDS011;4351;51.422;6.794;2023-03-14T07:04:09;0.80;;;0.40;;
8626;SDS011;4351;51.422;6.794;2023-03-14T07:06:42;0.83;;;0.30;;
8626;SDS011;4351;51.422;6.794;2023-03-14T07:09:10;0.60;;;0.30;;
8626;SDS011;4351;51.422;6.794;2023-03-14T07:11:43;0.90;;;0.50;;
8626;SDS011;4351;51.422;6.794;2023-03-14T07:14:11;1.53;;;0.50;;
8626;SDS011;4351;51.422;6.794;2023-03-14T07:16:40;1.07;;;0.40;;
8626;SDS011;4351;51.422;6.794;2023-03-14T07:19:08;1.20;;;0.60;;
8626;SDS011;4351;51.422;6.794;2023-03-14T07:21:36;2.10;;;0.70;;
8626;SDS011;4351;51.422;6.794;2023-03-14T07:24:07;2.30;;;1.00;;
8626;SDS011;4351;51.422;6.794;2023-03-14T07:26:36;2.47;;;1.20;;
8626;SDS011;4351;51.422;6.794;2023-03-14T07:29:04;2.57;;;1.17;;
8626;SDS011;4351;51.422;6.794;2023-03-14T07:31:32;4.50;;;1.80;;
8626;SDS011;4351;51.422;6.794;2023-03-14T07:34:03;2.00;;;1.20;;
8626;SDS011;4351;51.422;6.794;2023-03-14T07:36:35;2.37;;;1.43;;
8626;SDS011;4351;51.422;6.794;2023-03-14T07:39:03;1.97;;;1.00;;
8626;SDS011;4351;51.422;6.794;2023-03-14T07:41:31;2.13;;;1.00;;
8626;SDS011;4351;51.422;6.794;2023-03-14T07:44:19;1.23;;;0.83;;
8626;SDS011;4351;51.422;6.794;2023-03-14T07:46:47;1.30;;;0.97;;
8626;SDS011;4351;51.422;6.794;2023-03-14T07:49:17;4.43;;;1.50;;
8626;SDS011;4351;51.422;6.794;2023-03-14T07:51:47;2.40;;;1.27;;
8626;SDS011;4351;51.422;6.794;2023-03-14T07:54:15;2.93;;;1.50;;
8626;SDS011;4351;51.422;6.794;2023-03-14T07:56:46;3.37;;;1.80;;
8626;SDS011;4351;51.422;6.794;2023-03-14T07:59:14;1.47;;;1.20;;
8626;SDS011;4351;51.422;6.794;2023-03-14T08:01:41;1.97;;;1.60;;
8626;SDS011;4351;51.422;6.794;2023-03-14T08:04:09;4.07;;;2.50;;
8626;SDS011;4351;51.422;6.794;2023-03-14T08:06:39;4.83;;;2.50;;
8626;SDS011;4351;51.422;6.794;2023-03-14T08:09:07;4.17;;;2.60;;
8626;SDS011;4351;51.422;6.794;2023-03-14T08:11:35;6.80;;;3.83;;
8626;SDS011;4351;51.422;6.794;2023-03-14T08:14:03;7.40;;;3.77;;
8626;SDS011;4351;51.422;6.794;2023-03-14T08:16:31;5.47;;;3.70;;
8626;SDS011;4351;51.422;6.794;2023-03-14T08:18:59;2.90;;;2.10;;
8626;SDS011;4351;51.422;6.794;2023-03-14T08:21:27;5.67;;;2.43;;
8626;SDS011;4351;51.422;6.794;2023-03-14T08:23:56;3.53;;;2.63;;
8626;SDS011;4351;51.422;6.794;2023-03-14T08:26:24;6.17;;;4.07;;
8626;SDS011;4351;51.422;6.794;2023-03-14T08:28:52;9.87;;;6.27;;
8626;SDS011;4351;51.422;6.794;2023-03-14T08:31:20;11.93;;;6.97;;
8626;SDS011;4351;51.422;6.794;2023-03-14T08:33:48;8.90;;;6.33;;
8626;SDS011;4351;51.422;6.794;2023-03-14T08:36:18;11.23;;;7.03;;
8626;SDS011;4351;51.422;6.794;2023-03-14T08:38:49;7.83;;;5.20;;
8626;SDS011;4351;51.422;6.794;2023-03-14T08:41:18;5.90;;;4.00;;
8626;SDS011;4351;51.422;6.794;2023-03-14T08:43:46;6.80;;;3.30;;
8626;SDS011;4351;51.422;6.794;2023-03-14T08:46:14;5.37;;;2.90;;
8626;SDS011;4351;51.422;6.794;2023-03-14T08:48:42;3.43;;;2.07;;
8626;SDS011;4351;51.422;6.794;2023-03-14T08:51:10;3.70;;;1.90;;
8626;SDS011;4351;51.422;6.794;2023-03-14T08:53:40;2.63;;;1.70;;
8626;SDS011;4351;51.422;6.794;2023-03-14T08:56:09;3.03;;;1.40;;
8626;SDS011;4351;51.422;6.794;2023-03-14T08:58:38;2.70;;;1.37;;
8626;SDS011;4351;51.422;6.794;2023-03-14T09:01:08;2.40;;;1.37;;
8626;SDS011;4351;51.422;6.794;2023-03-14T09:03:37;2.83;;;1.40;;
8626;SDS011;4351;51.422;6.794;2023-03-14T09:06:05;3.03;;;1.40;;
8626;SDS011;4351;51.422;6.794;2023-03-14T09:08:35;2.10;;;1.30;;
8626;SDS011;4351;51.422;6.794;2023-03-14T09:11:06;2.23;;;1.10;;
8626;SDS011;4351;51.422;6.794;2023-03-14T09:13:35;3.40;;;1.00;;
8626;SDS011;4351;51.422;6.794;2023-03-14T09:16:05;2.97;;;0.50;;
8626;SDS011;4351;51.422;6.794;2023-03-14T09:18:34;0.77;;;0.50;;
8626;SDS011;4351;51.422;6.794;2023-03-14T09:21:02;1.97;;;0.60;;
8626;SDS011;4351;51.422;6.794;2023-03-14T09:23:30;1.07;;;0.40;;
8626;SDS011;4351;51.422;6.794;2023-03-14T09:25:59;1.67;;;0.60;;
8626;SDS011;4351;51.422;6.794;2023-03-14T09:28:28;0.57;;;0.40;;
8626;SDS011;4351;51.422;6.794;2023-03-14T09:30:56;3.77;;;0.60;;
8626;SDS011;4351;51.422;6.794;2023-03-14T09:33:25;3.30;;;0.70;;
8626;SDS011;4351;51.422;6.794;2023-03-14T09:35:53;2.10;;;0.67;;
8626;SDS011;4351;51.422;6.794;2023-03-14T09:38:26;2.37;;;1.17;;
8626;SDS011;4351;51.422;6.794;2023-03-14T09:40:54;3.10;;;0.80;;
8626;SDS011;4351;51.422;6.794;2023-03-14T09:43:25;1.67;;;0.80;;
8626;SDS011;4351;51.422;6.794;2023-03-14T09:45:56;1.57;;;1.17;;
8626;SDS011;4351;51.422;6.794;2023-03-14T09:48:31;2.17;;;1.10;;
8626;SDS011;4351;51.422;6.794;2023-03-14T09:51:01;1.90;;;1.20;;
8626;SDS011;4351;51.422;6.794;2023-03-14T09:53:35;2.23;;;1.20;;
8626;SDS011;4351;51.422;6.794;2023-03-14T09:56:08;2.23;;;1.50;;
8626;SDS011;4351;51.422;6.794;2023-03-14T09:58:41;3.40;;;1.77;;
8626;SDS011;4351;51.422;6.794;2023-03-14T10:01:14;3.07;;;1.80;;
8626;SDS011;4351;51.422;6.794;2023-03-14T10:03:47;2.60;;;1.50;;
8626;SDS011;4351;51.422;6.794;2023-03-14T10:06:16;2.50;;;1.60;;
8626;SDS011;4351;51.422;6.794;2023-03-14T10:08:44;2.47;;;1.83;;
8626;SDS011;4351;51.422;6.794;2023-03-14T10:11:14;4.17;;;1.90;;
8626;SDS011;4351;51.422;6.794;2023-03-14T10:13:47;4.27;;;1.60;;
8626;SDS011;4351;51.422;6.794;2023-03-14T10:16:17;2.17;;;1.40;;
8626;SDS011;4351;51.422;6.794;2023-03-14T10:19:02;3.90;;;1.30;;
8626;SDS011;4351;51.422;6.794;2023-03-14T10:21:35;3.00;;;1.30;;
8626;SDS011;4351;51.422;6.794;2023-03-14T10:24:10;3.03;;;1.17;;
8626;SDS011;4351;51.422;6.794;2023-03-14T10:26:47;5.37;;;1.80;;
8626;SDS011;4351;51.422;6.794;2023-03-14T10:29:17;3.67;;;1.27;;
8626;SDS011;4351;51.422;6.794;2023-03-14T10:31:46;2.53;;;1.13;;
8626;SDS011;4351;51.422;6.794;2023-03-14T10:34:21;3.60;;;1.23;;
8626;SDS011;4351;51.422;6.794;2023-03-14T10:36:52;4.00;;;1.23;;
8626;SDS011;4351;51.422;6.794;2023-03-14T10:39:23;1.93;;;0.90;;
8626;SDS011;4351;51.422;6.794;2023-03-14T10:41:54;4.97;;;1.20;;
8626;SDS011;4351;51.422;6.794;2023-03-14T10:44:29;3.30;;;1.30;;
8626;SDS011;4351;51.422;6.794;2023-03-14T10:46:58;5.23;;;1.20;;
8626;SDS011;4351;51.422;6.794;2023-03-14T10:49:30;4.50;;;1.40;;
8626;SDS011;4351;51.422;6.794;2023-03-14T10:52:12;2.13;;;1.40;;
8626;SDS011;4351;51.422;6.794;2023-03-14T10:54:46;4.83;;;1.80;;
8626;SDS011;4351;51.422;6.794;2023-03-14T10:57:15;5.70;;;1.70;;
8626;SDS011;4351;51.422;6.794;2023-03-14T10:59:43;4.70;;;1.90;;
8626;SDS011;4351;51.422;6.794;2023-03-14T11:02:16;4.97;;;1.70;;
8626;SDS011;4351;51.422;6.794;2023-03-14T11:05:14;3.73;;;1.50;;
8626;SDS011;4351;51.422;6.794;2023-03-14T11:07:51;2.90;;;1.30;;
8626;SDS011;4351;51.422;6.794;2023-03-14T11:10:25;2.80;;;1.17;;
8626;SDS011;4351;51.422;6.794;2023-03-14T11:13:01;3.53;;;1.30;;
8626;SDS011;4351;51.422;6.794;2023-03-14T11:15:41;3.27;;;1.50;;
8626;SDS011;4351;51.422;6.794;2023-03-14T11:18:25;3.87;;;2.20;;
8626;SDS011;4351;51.422;6.794;2023-03-14T11:21:11;5.23;;;2.30;;
8626;SDS011;4351;51.422;6.794;2023-03-14T11:23:42;6.33;;;2.30;;
8626;SDS011;4351;51.422;6.794;2023-03-14T11:26:21;7.03;;;2.60;;
8626;SDS011;4351;51.422;6.794;2023-03-14T11:28:56;5.17;;;2.40;;
8626;SDS011;4351;51.422;6.794;2023-03-14T11:31:26;5.47;;;2.30;;
8626;SDS011;4351;51.422;6.794;2023-03-14T11:33:56;3.67;;;2.00;;
8626;SDS011;4351;51.422;6.794;2023-03-14T11:36:31;3.60;;;1.73;;
8626;SDS011;4351;51.422;6.794;2023-03-14T11:39:03;7.43;;;2.03;;
8626;SDS011;4351;51.422;6.794;2023-03-14T11:41:40;4.07;;;1.53;;
8626;SDS011;4351;51.422;6.794;2023-03-14T11:44:14;5.63;;;1.63;;
8626;SDS011;4351;51.422;6.794;2023-03-14T11:46:47;7.17;;;1.00;;
8626;SDS011;4351;51.422;6.794;2023-03-14T11:49:22;2.73;;;1.20;;
8626;SDS011;4351;51.422;6.794;2023-03-14T11:52:01;4.50;;;1.37;;
8626;SDS011;4351;51.422;6.794;2023-03-14T11:54:34;2.27;;;1.10;;
8626;SDS011;4351;51.422;6.794;2023-03-14T11:57:12;6.17;;;1.33;;
8626;SDS011;4351;51.422;6.794;2023-03-14T11:59:45;4.13;;;1.30;;
8626;SDS011;4351;51.422;6.794;2023-03-14T12:02:20;4.60;;;1.57;;
8626;SDS011;4351;51.422;6.794;2023-03-14T12:05:20;6.00;;;1.77;;
8626;SDS011;4351;51.422;6.794;2023-03-14T12:08:16;6.53;;;1.80;;
8626;SDS011;4351;51.422;6.794;2023-03-14T12:10:53;3.63;;;1.70;;
8626;SDS011;4351;51.422;6.794;2023-03-14T12:13:28;6.03;;;2.13;;
8626;SDS011;4351;51.422;6.794;2023-03-14T12:15:57;5.90;;;1.77;;
8626;SDS011;4351;51.422;6.794;2023-03-14T12:18:28;8.50;;;2.33;;
8626;SDS011;4351;51.422;6.794;2023-03-14T12:20:58;5.87;;;2.23;;
8626;SDS011;4351;51.422;6.794;2023-03-14T12:23:34;5.43;;;2.30;;
8626;SDS011;4351;51.422;6.794;2023-03-14T12:26:12;6.50;;;1.97;;
8626;SDS011;4351;51.422;6.794;2023-03-14T12:28:43;9.20;;;2.50;;
8626;SDS011;4351;51.422;6.794;2023-03-14T12:31:36;9.23;;;2.27;;
8626;SDS011;4351;51.422;6.794;2023-03-14T12:36:59;8.03;;;1.60;;
8626;SDS011;4351;51.422;6.794;2023-03-14T12:39:37;8.03;;;1.50;;
8626;SDS011;4351;51.422;6.794;2023-03-14T12:42:16;7.70;;;1.70;;
8626;SDS011;4351;51.422;6.794;2023-03-14T12:44:57;7.33;;;1.87;;
8626;SDS011;4351;51.422;6.794;2023-03-14T12:47:50;8.67;;;1.77;;
8626;SDS011;4351;51.422;6.794;2023-03-14T12:50:25;16.93;;;2.80;;
8626;SDS011;4351;51.422;6.794;2023-03-14T12:56:04;12.27;;;1.77;;
8626;SDS011;4351;51.422;6.794;2023-03-14T12:58:38;7.60;;;1.63;;
8626;SDS011;4351;51.422;6.794;2023-03-14T13:01:15;13.17;;;2.40;;
8626;SDS011;4351;51.422;6.794;2023-03-14T13:03:45;15.00;;;2.03;;
8626;SDS011;4351;51.422;6.794;2023-03-14T13:06:23;12.73;;;2.20;;
8626;SDS011;4351;51.422;6.794;2023-03-14T13:09:46;10.00;;;2.10;;
8626;SDS011;4351;51.422;6.794;2023-03-14T13:12:25;14.47;;;2.47;;
8626;SDS011;4351;51.422;6.794;2023-03-14T13:14:59;13.17;;;2.93;;
8626;SDS011;4351;51.422;6.794;2023-03-14T13:17:31;13.20;;;3.27;;
8626;SDS011;4351;51.422;6.794;2023-03-14T13:20:05;9.37;;;2.27;;
8626;SDS011;4351;51.422;6.794;2023-03-14T13:22:40;13.77;;;2.93;;
8626;SDS011;4351;51.422;6.794;2023-03-14T13:25:14;17.13;;;2.97;;
8626;SDS011;4351;51.422;6.794;2023-03-14T13:27:45;11.27;;;2.43;;
8626;SDS011;4351;51.422;6.794;2023-03-14T13:30:19;16.43;;;3.20;;
8626;SDS011;4351;51.422;6.794;2023-03-14T13:32:50;15.47;;;3.33;;
8626;SDS011;4351;51.422;6.794;2023-03-14T13:35:20;20.50;;;3.27;;
8626;SDS011;4351;51.422;6.794;2023-03-14T13:37:55;16.67;;;2.90;;
8626;SDS011;4351;51.422;6.794;2023-03-14T13:40:37;13.20;;;2.93;;
8626;SDS011;4351;51.422;6.794;2023-03-14T13:43:13;14.63;;;3.07;;
8626;SDS011;4351;51.422;6.794;2023-03-14T13:45:44;18.40;;;3.17;;
8626;SDS011;4351;51.422;6.794;2023-03-14T13:48:19;17.90;;;2.73;;
8626;SDS011;4351;51.422;6.794;2023-03-14T13:50:52;13.87;;;3.07;;
8626;SDS011;4351;51.422;6.794;2023-03-14T13:53:23;11.60;;;2.70;;
8626;SDS011;4351;51.422;6.794;2023-03-14T13:55:52;14.13;;;2.60;;
8626;SDS011;4351;51.422;6.794;2023-03-14T13:58:22;17.47;;;2.67;;
8626;SDS011;4351;51.422;6.794;2023-03-14T14:00:56;12.40;;;2.73;;
8626;SDS011;4351;51.422;6.794;2023-03-14T14:03:27;13.20;;;3.07;;
8626;SDS011;4351;51.422;6.794;2023-03-14T14:05:57;14.00;;;2.80;;
8626;SDS011;4351;51.422;6.794;2023-03-14T14:08:25;11.57;;;2.57;;
8626;SDS011;4351;51.422;6.794;2023-03-14T14:10:55;11.80;;;2.50;;
8626;SDS011;4351;51.422;6.794;2023-03-14T14:13:29;14.33;;;2.70;;
8626;SDS011;4351;51.422;6.794;2023-03-14T14:16:01;12.43;;;2.80;;
8626;SDS011;4351;51.422;6.794;2023-03-14T14:18:31;16.30;;;2.20;;
8626;SDS011;4351;51.422;6.794;2023-03-14T14:21:01;10.37;;;1.77;;
8626;SDS011;4351;51.422;6.794;2023-03-14T14:23:30;8.23;;;1.90;;
8626;SDS011;4351;51.422;6.794;2023-03-14T14:25:58;9.93;;;1.90;;
8626;SDS011;4351;51.422;6.794;2023-03-14T14:28:27;11.77;;;2.13;;
8626;SDS011;4351;51.422;6.794;2023-03-14T14:31:04;12.63;;;2.20;;
8626;SDS011;4351;51.422;6.794;2023-03-14T14:33:40;10.00;;;1.80;;
8626;SDS011;4351;51.422;6.794;2023-03-14T14:36:14;9.50;;;1.77;;
8626;SDS011;4351;51.422;6.794;2023-03-14T14:38:49;8.93;;;1.50;;
8626;SDS011;4351;51.422;6.794;2023-03-14T14:41:19;10.00;;;1.90;;
8626;SDS011;4351;51.422;6.794;2023-03-14T14:43:49;7.20;;;1.73;;
8626;SDS011;4351;51.422;6.794;2023-03-14T14:46:19;8.67;;;1.60;;
8626;SDS011;4351;51.422;6.794;2023-03-14T14:48:47;5.77;;;1.70;;
8626;SDS011;4351;51.422;6.794;2023-03-14T14:51:25;7.37;;;1.47;;
8626;SDS011;4351;51.422;6.794;2023-03-14T14:54:09;7.17;;;1.80;;
8626;SDS011;4351;51.422;6.794;2023-03-14T14:56:40;12.07;;;1.80;;
8626;SDS011;4351;51.422;6.794;2023-03-14T14:59:21;10.00;;;1.70;;
8626;SDS011;4351;51.422;6.794;2023-03-14T15:01:56;8.63;;;2.23;;
8626;SDS011;4351;51.422;6.794;2023-03-14T15:04:26;7.87;;;1.27;;
8626;SDS011;4351;51.422;6.794;2023-03-14T15:06:54;6.90;;;1.77;;
8626;SDS011;4351;51.422;6.794;2023-03-14T15:09:22;8.97;;;1.50;;
8626;SDS011;4351;51.422;6.794;2023-03-14T15:11:51;6.03;;;1.63;;
8626;SDS011;4351;51.422;6.794;2023-03-14T15:14:20;10.07;;;1.67;;
8626;SDS011;4351;51.422;6.794;2023-03-14T15:16:48;5.47;;;1.80;;
8626;SDS011;4351;51.422;6.794;2023-03-14T15:19:19;6.23;;;1.60;;
8626;SDS011;4351;51.422;6.794;2023-03-14T15:21:50;11.57;;;1.73;;
8626;SDS011;4351;51.422;6.794;2023-03-14T15:24:19;9.67;;;1.73;;
8626;SDS011;4351;51.422;6.794;2023-03-14T15:26:50;9.30;;;1.77;;
8626;SDS011;4351;51.422;6.794;2023-03-14T15:29:18;5.87;;;1.90;;
8626;SDS011;4351;51.422;6.794;2023-03-14T15:31:48;9.13;;;1.60;;
8626;SDS011;4351;51.422;6.794;2023-03-14T15:34:16;7.60;;;1.47;;
8626;SDS011;4351;51.422;6.794;2023-03-14T15:36:44;9.27;;;1.63;;
8626;SDS011;4351;51.422;6.794;2023-03-14T15:39:12;7.10;;;1.50;;
8626;SDS011;4351;51.422;6.794;2023-03-14T15:41:39;7.80;;;1.20;;
8626;SDS011;4351;51.422;6.794;2023-03-14T15:44:07;5.70;;;1.30;;
8626;SDS011;4351;51.422;6.794;2023-03-14T15:46:35;6.73;;;1.47;;
8626;SDS011;4351;51.422;6.794;2023-03-14T15:49:04;6.30;;;1.70;;
8626;SDS011;4351;51.422;6.794;2023-03-14T15:51:32;4.67;;;1.10;;